Time;durP1;ratioP1;P1;durP2;ratioP2;P2;SDS_P1;SDS_P2;PMS_P1;PMS_P2;Temp;Humidity;BMP_temperature;BMP_pressure;BME280_temperature;BME280_humidity;BME280_pressure;Samples;Min_cycle;Max_cycle;Signal;HPM_P1;HPM_P2
2021/09/15 00:01:17;;;;;;;;;;;;;;;16.79;60.18;100464.52;1717606;83;21060;-66
2021/09/15 00:03:44;;;;;;;9.80;5.62;;;;;;;16.80;59.93;100464.80;1713613;83;20104;-67
2021/09/15 00:06:13;;;;;;;10.58;5.35;;;;;;;16.82;59.62;100465.34;1717058;82;20974;-67
2021/09/15 00:08:40;;;;;;;8.90;5.50;;;;;;;16.85;59.38;100468.09;1710542;83;20943;-66
2021/09/15 00:11:11;;;;;;;9.50;5.62;;;;;;;16.87;59.11;100465.13;1695774;83;20982;-67
2021/09/15 00:13:37;;;;;;;;;;;;;;;16.88;58.91;100466.80;1718672;83;21146;-67
2021/09/15 00:16:06;;;;;;;9.95;5.50;;;;;;;16.88;58.74;100468.15;1716406;83;20148;-67
2021/09/15 00:18:34;;;;;;;;;;;;;;;16.86;58.39;100474.30;1719104;83;20978;-67
2021/09/15 00:21:01;;;;;;;9.93;5.65;;;;;;;16.83;57.86;100470.25;1720431;83;20133;-66
2021/09/15 00:23:30;;;;;;;8.58;5.37;;;;;;;16.74;57.93;100472.61;1715303;83;27446;-66
2021/09/15 00:25:57;;;;;;;10.28;5.37;;;;;;;16.71;57.97;100469.06;1716552;83;21096;-66
2021/09/15 00:28:23;;;;;;;9.23;5.10;;;;;;;16.70;57.71;100472.83;1707913;83;21513;-67
2021/09/15 00:30:50;;;;;;;8.53;5.20;;;;;;;16.69;57.45;100472.54;1720399;83;21442;-68
2021/09/15 00:33:17;;;;;;;9.75;5.08;;;;;;;16.68;57.34;100472.28;1695529;83;21034;-65
2021/09/15 00:35:44;;;;;;;10.82;5.25;;;;;;;16.68;56.75;100467.38;1717113;83;21607;-66
2021/09/15 00:38:12;;;;;;;12.78;5.35;;;;;;;16.67;56.51;100472.54;1716957;83;21228;-67
2021/09/15 00:40:39;;;;;;;9.73;4.97;;;;;;;16.64;56.43;100471.16;1720641;83;20966;-68
2021/09/15 00:43:06;;;;;;;7.72;4.47;;;;;;;16.63;56.18;100480.34;1694949;83;21535;-67
2021/09/15 00:45:33;;;;;;;9.28;4.87;;;;;;;16.62;55.17;100475.98;1716435;83;20975;-67
2021/09/15 00:48:01;;;;;;;11.23;4.70;;;;;;;16.56;54.69;100473.79;1697385;83;21006;-66
2021/09/15 00:50:28;;;;;;;7.28;3.95;;;;;;;16.52;54.30;100464.55;1716565;83;21180;-68
2021/09/15 00:52:56;;;;;;;6.80;4.10;;;;;;;16.46;53.46;100469.08;1717149;83;21559;-65
2021/09/15 00:55:24;;;;;;;8.83;3.70;;;;;;;16.42;53.27;100472.01;1717046;83;20901;-66
2021/09/15 00:57:51;;;;;;;6.40;3.33;;;;;;;16.40;51.23;100474.68;1716323;82;20935;-66
2021/09/15 01:00:17;;;;;;;9.45;4.08;;;;;;;16.32;50.19;100470.55;1715372;83;20997;-64
2021/09/15 01:02:46;;;;;;;7.83;3.27;;;;;;;16.27;50.40;100472.66;1717050;83;21931;-66
2021/09/15 01:05:15;;;;;;;5.92;3.45;;;;;;;16.25;49.75;100470.76;1695058;83;21506;-65
2021/09/15 01:07:43;;;;;;;7.03;3.27;;;;;;;16.24;48.76;100477.23;1716496;83;21042;-66
2021/09/15 01:10:12;;;;;;;5.80;3.27;;;;;;;16.23;48.04;100472.88;1716109;83;21706;-66
2021/09/15 01:12:40;;;;;;;;;;;;;;;16.19;48.21;100479.05;1717379;83;21062;-69
2021/09/15 01:15:23;;;;;;;6.95;3.25;;;;;;;16.17;48.38;100475.80;1713471;83;20096;-67
2021/09/15 01:18:17;;;;;;;8.50;3.17;;;;;;;16.16;48.61;100483.63;1712042;83;20903;-68
2021/09/15 01:21:10;;;;;;;5.90;3.50;;;;;;;16.16;48.61;100485.78;1716226;82;21038;-68
2021/09/15 01:23:50;;;;;;;4.50;3.00;;;;;;;16.15;48.83;100482.81;1716927;83;20971;-67
2021/09/15 01:26:25;;;;;;;5.40;3.30;;;;;;;16.08;49.34;100485.69;1711705;83;21007;-67
2021/09/15 01:29:16;;;;;;;6.12;3.70;;;;;;;15.98;49.96;100492.33;1683563;83;20927;-68
2021/09/15 01:32:03;;;;;;;8.40;3.42;;;;;;;15.97;50.57;100489.88;1680417;83;20978;-68
2021/09/15 01:34:40;;;;;;;;;;;;;;;15.99;50.87;100491.27;1718844;83;20963;-69
2021/09/15 01:37:10;;;;;;;5.72;3.25;;;;;;;16.00;51.15;100485.31;1716545;83;20117;-68
2021/09/15 01:39:40;;;;;;;8.83;3.67;;;;;;;16.00;51.31;100486.67;1715429;83;21789;-69
2021/09/15 01:42:07;;;;;;;8.43;4.28;;;;;;;15.99;51.18;100487.21;1691368;83;21792;-70
2021/09/15 01:44:38;;;;;;;10.08;3.92;;;;;;;15.95;51.28;100488.78;1716114;83;27023;-68
2021/09/15 01:47:07;;;;;;;13.10;4.37;;;;;;;15.91;51.37;100493.04;1696377;83;21449;-69
2021/09/15 01:49:35;;;;;;;11.88;3.92;;;;;;;15.85;51.25;100495.40;1688285;83;20935;-69
2021/09/15 01:52:04;;;;;;;8.65;4.05;;;;;;;15.77;51.46;100487.16;1695249;83;21572;-69
2021/09/15 01:54:32;;;;;;;6.70;3.08;;;;;;;15.75;50.90;100487.42;1694090;83;21810;-68
2021/09/15 01:57:00;;;;;;;5.30;3.25;;;;;;;15.75;50.41;100487.93;1715710;82;21488;-68
2021/09/15 01:59:48;;;;;;;8.50;3.35;;;;;;;15.72;49.92;100483.03;1716647;83;21654;-68
2021/09/15 02:02:17;;;;;;;6.85;3.22;;;;;;;15.68;49.32;100489.98;1717001;83;21021;-69
2021/09/15 02:04:47;;;;;;;9.00;3.22;;;;;;;15.65;49.06;100492.68;1716582;83;21580;-67
2021/09/15 02:07:19;;;;;;;8.08;2.95;;;;;;;15.66;49.40;100495.64;1709238;83;21130;-67
2021/09/15 02:09:57;;;;;;;;;;;;;;;15.69;49.38;100494.34;1718676;83;21006;-66
2021/09/15 02:12:26;;;;;;;7.50;3.12;;;;;;;15.67;48.69;100501.89;1696759;83;20124;-66
2021/09/15 02:14:54;;;;;;;5.70;3.10;;;;;;;15.57;48.89;100492.55;1720316;83;21528;-65
2021/09/15 02:17:23;;;;;;;8.35;3.00;;;;;;;15.55;48.87;100497.39;1696239;83;21560;-66
2021/09/15 02:19:51;;;;;;;6.05;3.15;;;;;;;15.50;48.69;100503.25;1720606;83;21129;-66
2021/09/15 02:22:20;;;;;;;6.10;3.17;;;;;;;15.38;48.90;100502.80;1696580;83;21082;-66
2021/09/15 02:24:53;;;;;;;9.58;3.35;;;;;;;15.31;48.87;100498.13;1706635;83;20899;-66
2021/09/15 02:27:22;;;;;;;6.83;3.17;;;;;;;15.26;49.31;100508.83;1714039;83;21014;-67
2021/09/15 02:29:51;;;;;;;9.70;3.25;;;;;;;15.28;48.83;100509.94;1715997;83;21058;-68
2021/09/15 02:32:35;;;;;;;4.45;2.60;;;;;;;15.23;48.27;100506.08;1713684;83;21146;-67
2021/09/15 02:35:08;;;;;;;5.62;2.85;;;;;;;15.18;47.78;100504.67;1702185;83;20946;-66
2021/09/15 02:37:37;;;;;;;6.45;2.70;;;;;;;15.08;48.15;100507.74;1714474;83;21293;-67
2021/09/15 02:40:12;;;;;;;4.20;2.05;;;;;;;15.04;48.52;100505.50;1714974;83;21564;-67
2021/09/15 02:42:56;;;;;;;6.05;2.58;;;;;;;15.03;48.16;100508.45;1716509;83;21020;-68
2021/09/15 02:45:25;;;;;;;6.12;2.98;;;;;;;14.98;48.43;100505.67;1687925;83;21121;-67
2021/09/15 02:47:54;;;;;;;;;;;;;;;15.01;48.77;100507.89;1696711;83;21018;-67
2021/09/15 02:50:22;;;;;;;2.87;2.10;;;;;;;15.04;47.84;100502.80;1682036;83;20137;-67
2021/09/15 02:52:54;;;;;;;5.62;2.92;;;;;;;15.00;48.15;100508.94;1712676;83;21042;-66
2021/09/15 02:55:30;;;;;;;5.15;2.60;;;;;;;14.96;47.86;100507.27;1706840;83;20887;-66
2021/09/15 02:57:59;;;;;;;;;;;;;;;14.96;47.97;100514.02;1714689;83;21532;-67
2021/09/15 03:00:31;;;;;;;6.15;2.45;;;;;;;14.96;47.96;100510.48;1712294;83;20085;-66
2021/09/15 03:03:03;;;;;;;5.50;2.65;;;;;;;14.94;48.10;100514.77;1712081;83;20978;-67
2021/09/15 03:05:32;;;;;;;5.92;2.10;;;;;;;14.96;48.20;100518.58;1690237;83;20951;-68
2021/09/15 03:08:17;;;;;;;8.33;2.90;;;;;;;14.96;48.08;100519.42;1716415;83;21525;-68
2021/09/15 03:10:46;;;;;;;;;;;;;;;14.93;48.05;100513.16;1716172;83;21014;-67
2021/09/15 03:13:14;;;;;;;5.25;2.35;;;;;;;14.87;48.03;100509.55;1716189;83;20347;-68
2021/09/15 03:15:42;;;;;;;6.67;2.45;;;;;;;14.83;48.12;100514.33;1717153;83;21502;-67
2021/09/15 03:18:11;;;;;;;7.37;2.50;;;;;;;14.83;47.96;100517.84;1714794;83;21506;-67
2021/09/15 03:20:39;;;;;;;;;;;;;;;14.82;47.64;100518.08;1718611;83;21070;-68
2021/09/15 03:23:07;;;;;;;5.50;2.27;;;;;;;14.79;47.84;100518.57;1712763;83;21116;-68
2021/09/15 03:25:33;;;;;;;5.53;3.02;;;;;;;14.80;47.54;100521.56;1716689;83;20891;-68
2021/09/15 03:28:00;;;;;;;6.08;2.58;;;;;;;14.83;47.27;100525.13;1716211;83;20999;-68
2021/09/15 03:30:27;;;;;;;6.30;2.12;;;;;;;14.84;47.10;100534.33;1716716;83;21552;-68
2021/09/15 03:32:55;;;;;;;7.03;2.52;;;;;;;14.85;47.13;100525.15;1716936;83;20959;-69
2021/09/15 03:35:22;;;;;;;6.45;2.30;;;;;;;14.87;46.93;100524.39;1713145;83;21109;-67
2021/09/15 03:37:49;;;;;;;3.62;2.40;;;;;;;14.91;46.62;100532.00;1726540;82;20931;-68
2021/09/15 03:40:17;;;;;;;3.92;2.80;;;;;;;14.85;46.48;100523.80;1716514;82;21034;-68
2021/09/15 03:42:44;;;;;;;7.53;2.92;;;;;;;14.83;46.57;100534.03;1719508;82;21577;-67
2021/09/15 03:45:12;;;;;;;3.60;2.27;;;;;;;14.87;46.56;100535.19;1722125;82;21015;-68
2021/09/15 03:47:41;;;;;;;8.45;2.65;;;;;;;14.90;46.35;100540.64;1722857;82;20978;-68
2021/09/15 03:50:09;;;;;;;8.83;2.25;;;;;;;14.96;46.36;100541.52;1720759;82;21022;-69
2021/09/15 03:52:37;;;;;;;7.50;2.50;;;;;;;15.00;46.23;100548.92;1715437;82;21002;-67
2021/09/15 03:55:04;;;;;;;3.37;2.22;;;;;;;15.04;46.21;100545.19;1724992;82;20943;-68
2021/09/15 03:57:32;;;;;;;4.58;2.42;;;;;;;15.09;46.54;100551.20;1734471;82;20984;-66
2021/09/15 03:59:59;;;;;;;3.92;2.30;;;;;;;15.12;46.10;100555.60;1726788;82;21115;-67
2021/09/15 04:02:26;;;;;;;5.85;3.08;;;;;;;15.13;46.46;100555.06;1725902;82;20935;-67
2021/09/15 04:04:53;;;;;;;3.65;2.17;;;;;;;15.16;46.58;100556.73;1730189;82;20943;-67
2021/09/15 04:07:22;;;;;;;10.10;2.20;;;;;;;15.19;46.38;100564.88;1728425;82;20955;-68
2021/09/15 04:09:49;;;;;;;5.10;2.62;;;;;;;15.22;46.41;100567.09;1724226;82;21999;-71
2021/09/15 04:12:16;;;;;;;5.03;2.72;;;;;;;15.21;46.41;100560.88;1724595;82;21098;-70
2021/09/15 04:14:44;;;;;;;4.72;2.85;;;;;;;15.23;46.64;100566.84;1701037;83;21532;-68
2021/09/15 04:17:10;;;;;;;9.78;3.52;;;;;;;15.27;46.77;100568.55;1727960;82;20923;-70
2021/09/15 04:19:37;;;;;;;3.77;2.65;;;;;;;15.32;46.60;100567.80;1687606;83;21553;-69
2021/09/15 04:22:04;;;;;;;5.78;2.87;;;;;;;15.73;46.18;100572.50;1728263;82;21065;-67
2021/09/15 04:31:11;;;;;;;7.30;3.20;;;;;;;16.76;44.80;100567.09;1695151;83;21700;-67
2021/09/15 04:32:35;;;;;;;7.60;2.85;;;;;;;21.09;36.73;100566.88;1698502;81;21010;-68
2021/09/15 04:35:04;;;;;;;6.90;2.72;;;;;;;22.45;34.35;100568.84;1738173;81;21017;-68
2021/09/15 04:37:31;;;;;;;8.78;3.08;;;;;;;23.62;32.32;100575.58;1737258;81;21972;-69
2021/09/15 04:39:59;;;;;;;5.97;2.97;;;;;;;24.55;30.70;100571.86;1739613;81;21042;-67
2021/09/15 04:42:26;;;;;;;6.47;3.20;;;;;;;25.40;29.81;100575.97;1717322;83;21025;-69
2021/09/15 04:44:55;;;;;;;6.45;2.40;;;;;;;26.21;27.94;100568.87;1731378;81;21449;-68
2021/09/15 04:47:22;;;;;;;8.53;3.10;;;;;;;26.77;27.38;100577.15;1740281;81;21108;-67
2021/09/15 04:49:50;;;;;;;6.05;2.62;;;;;;;27.40;26.39;100583.13;1724528;81;21145;-67
2021/09/15 04:52:17;;;;;;;5.10;2.70;;;;;;;28.00;25.52;100583.30;1739952;81;21017;-67
2021/09/15 04:54:44;;;;;;;5.33;3.00;;;;;;;28.53;24.86;100587.36;1748744;81;21014;-67
2021/09/15 04:57:11;;;;;;;6.12;2.95;;;;;;;28.97;24.11;100589.25;1738651;80;21005;-67
2021/09/15 04:59:39;;;;;;;5.28;2.60;;;;;;;29.22;23.84;100589.97;1741184;81;21058;-68
2021/09/15 05:02:06;;;;;;;6.00;2.50;;;;;;;29.55;23.41;100592.73;1739056;81;21858;-70
2021/09/15 05:04:34;;;;;;;8.65;2.80;;;;;;;30.04;23.04;100595.56;1739407;81;21249;-69
2021/09/15 05:07:13;;;;;;;;;;;;;;;30.65;22.31;100593.13;1729418;81;20946;-69
2021/09/15 05:09:40;;;;;;;5.03;2.62;;;;;;;31.15;21.64;100595.18;1735403;81;20147;-68
2021/09/15 05:12:07;;;;;;;8.25;2.67;;;;;;;31.49;20.98;100595.70;1713522;81;21018;-68
2021/09/15 05:14:37;;;;;;;4.40;2.20;;;;;;;31.74;20.99;100601.35;1728186;81;21176;-69
2021/09/15 05:17:04;;;;;;;7.28;2.65;;;;;;;32.09;20.25;100593.67;1738801;81;20974;-70
2021/09/15 05:19:33;;;;;;;4.45;2.22;;;;;;;32.40;20.07;100598.18;1697846;83;20918;-69
2021/09/15 05:22:00;;;;;;;4.58;2.27;;;;;;;32.79;19.45;100605.22;1726822;83;20989;-68
2021/09/15 05:24:28;;;;;;;6.53;2.20;;;;;;;33.32;18.29;100606.10;1726381;83;20982;-69
2021/09/15 05:26:57;;;;;;;3.92;2.17;;;;;;;33.32;18.29;100606.10;1719669;83;20934;-68
2021/09/15 05:29:24;;;;;;;5.50;2.47;;;;;;;33.46;18.17;100620.83;1716297;83;20899;-68
2021/09/15 05:31:51;;;;;;;3.35;2.45;;;;;;;33.57;18.11;100619.06;1716053;83;21034;-69
2021/09/15 05:34:20;;;;;;;3.90;2.47;;;;;;;33.87;17.85;100611.46;1696197;83;21026;-68
2021/09/15 05:36:48;;;;;;;3.77;2.12;;;;;;;33.87;17.85;100611.46;1716709;83;20950;-69
2021/09/15 05:39:15;;;;;;;5.25;2.02;;;;;;;34.07;17.19;100615.54;1712533;82;21803;-70
2021/09/15 05:41:43;;;;;;;5.22;2.12;;;;;;;34.01;17.11;100617.26;1716214;83;20950;-68
2021/09/15 05:44:10;;;;;;;3.90;2.08;;;;;;;33.89;16.95;100616.05;1716383;83;20947;-68
2021/09/15 05:46:37;;;;;;;5.90;2.10;;;;;;;33.77;17.30;100613.47;1716917;83;20986;-68
2021/09/15 05:49:04;;;;;;;6.12;2.02;;;;;;;33.93;17.03;100621.08;1717083;83;20891;-68
2021/09/15 05:51:32;;;;;;;6.58;2.20;;;;;;;34.07;16.74;100619.70;1716202;83;21120;-65
2021/09/15 05:53:59;;;;;;;8.75;2.40;;;;;;;34.14;16.92;100620.62;1716814;83;21013;-67
2021/09/15 05:56:28;;;;;;;5.08;1.90;;;;;;;34.20;16.67;100621.93;1716849;82;21043;-67
2021/09/15 05:58:57;;;;;;;4.12;1.75;;;;;;;34.19;16.73;100628.66;1689766;83;21018;-69
2021/09/15 06:01:24;;;;;;;4.22;1.72;;;;;;;34.20;16.51;100627.49;1715877;83;21105;-67
2021/09/15 06:03:53;;;;;;;6.30;1.98;;;;;;;34.26;16.52;100632.72;1716219;83;20998;-64
2021/09/15 06:06:37;;;;;;;4.60;1.50;;;;;;;34.46;15.99;100627.89;1711622;83;21049;-69
2021/09/15 06:09:22;;;;;;;3.02;1.72;;;;;;;34.60;16.05;100632.27;1716494;81;21009;-69
2021/09/15 06:14:31;;;;;;;4.12;1.82;;;;;;;35.12;14.62;100635.94;1717668;82;20931;-71
2021/09/15 06:17:20;;;;;;;7.28;1.67;;;;;;;34.37;15.17;100639.29;1729605;82;21018;-69
2021/09/15 06:20:13;;;;;;;8.10;1.92;;;;;;;33.61;16.02;100638.56;1715226;82;20946;-69
2021/09/15 06:22:47;;;;;;;3.60;1.57;;;;;;;33.54;16.35;100637.86;1715944;83;21610;-72
2021/09/15 06:25:36;;;;;;;3.70;1.92;;;;;;;33.91;15.79;100640.69;1713745;82;21026;-70
2021/09/15 06:28:05;;;;;;;4.87;1.30;;;;;;;34.26;15.54;100643.31;1674583;85;21065;-71
2021/09/15 06:30:35;;;;;;;6.42;1.67;;;;;;;34.45;15.22;100641.58;1657499;85;21137;-73
2021/09/15 06:33:07;;;;;;;2.87;1.20;;;;;;;34.69;15.28;100643.13;1683026;85;21002;-70
2021/09/15 06:35:36;;;;;;;2.27;1.37;;;;;;;34.84;14.48;100644.94;1660487;85;21580;-70
2021/09/15 06:38:16;;;;;;;3.70;1.25;;;;;;;34.97;14.40;100649.69;1675256;85;21842;-72
2021/09/15 06:40:51;;;;;;;1.75;1.15;;;;;;;35.20;14.55;100652.33;1657989;85;21108;-72
2021/09/15 06:43:35;;;;;;;2.25;1.40;;;;;;;35.58;14.45;100655.96;1679845;85;21133;-71
2021/09/15 06:46:03;;;;;;;;;;;;;;;35.89;14.14;100656.67;1684583;85;21509;-72
2021/09/15 06:48:36;;;;;;;3.25;1.50;;;;;;;36.17;14.03;100661.50;1681916;85;20082;-69
2021/09/15 06:51:06;;;;;;;3.92;1.10;;;;;;;36.33;13.72;100664.83;1681077;85;21077;-72
2021/09/15 06:56:29;;;;;;;2.52;1.62;;;;;;;36.25;12.89;100661.73;1681943;83;21106;-73
2021/09/15 06:58:57;;;;;;;2.95;1.25;;;;;;;36.21;13.30;100665.91;1681824;85;21025;-72
2021/09/15 07:01:28;;;;;;;5.97;1.55;;;;;;;36.10;13.66;100664.44;1652731;85;21415;-70
2021/09/15 07:03:55;;;;;;;6.30;1.40;;;;;;;35.64;13.15;100668.17;1661694;84;21021;-70
2021/09/15 07:06:24;;;;;;;5.97;1.30;;;;;;;35.02;13.98;100671.61;1660088;85;20974;-70
2021/09/15 07:08:59;;;;;;;2.62;1.60;;;;;;;34.81;14.03;100665.19;1681973;85;20856;-69
2021/09/15 07:11:32;;;;;;;4.10;1.35;;;;;;;34.44;14.30;100665.83;1681935;83;20938;-70
2021/09/15 07:14:03;;;;;;;3.47;1.47;;;;;;;34.05;14.61;100665.39;1682069;85;20994;-70
2021/09/15 07:16:56;;;;;;;3.42;1.40;;;;;;;33.78;14.73;100663.72;1681994;84;20946;-71
2021/09/15 07:19:57;;;;;;;3.15;1.50;;;;;;;33.38;14.72;100671.29;1680226;85;20962;-69
2021/09/15 07:22:31;;;;;;;2.05;1.20;;;;;;;32.53;14.44;100664.06;1681771;85;20946;-69
2021/09/15 07:27:36;;;;;;;4.55;1.60;;;;;;;30.40;16.62;100665.84;1681469;85;21077;-69
2021/09/15 07:30:10;;;;;;;3.10;1.30;;;;;;;29.55;17.61;100668.66;1661673;85;21678;-69
2021/09/15 07:32:39;;;;;;;2.72;1.00;;;;;;;28.82;18.14;100667.11;1681521;85;20959;-70
2021/09/15 07:35:32;;;;;;;2.92;0.98;;;;;;;28.05;18.59;100666.57;1678816;85;21247;-69
2021/09/15 07:38:19;;;;;;;1.82;1.12;;;;;;;27.45;19.30;100666.91;1681626;85;20973;-66
2021/09/15 07:40:46;;;;;;;3.67;1.55;;;;;;;26.85;19.70;100663.77;1679113;85;20982;-66
2021/09/15 07:43:15;;;;;;;2.83;1.50;;;;;;;26.31;20.31;100676.84;1681821;84;21853;-65
2021/09/15 07:45:43;;;;;;;7.95;1.35;;;;;;;25.75;20.81;100677.73;1681767;85;20993;-66
2021/09/15 07:48:13;;;;;;;5.95;1.80;;;;;;;25.25;21.46;100673.14;1682214;85;21078;-67
2021/09/15 07:50:40;;;;;;;7.10;1.25;;;;;;;24.99;21.68;100675.10;1681798;83;21029;-60
2021/09/15 07:53:10;;;;;;;5.80;1.40;;;;;;;24.84;22.95;100674.87;1680690;85;21093;-59
2021/09/15 07:55:39;;;;;;;3.90;1.20;;;;;;;24.79;22.36;100670.32;1681565;85;20950;-59
2021/09/15 07:58:07;;;;;;;1.73;0.90;;;;;;;24.74;22.70;100670.98;1681685;84;21547;-62
2021/09/15 08:00:34;;;;;;;2.30;1.40;;;;;;;24.58;22.17;100670.45;1680758;85;21042;-62
2021/09/15 08:03:01;;;;;;;3.87;1.25;;;;;;;24.22;22.91;100673.88;1680890;84;20990;-60
2021/09/15 08:05:28;;;;;;;3.70;1.40;;;;;;;23.96;23.26;100681.20;1682285;85;21097;-59
2021/09/15 08:07:56;;;;;;;2.98;1.80;;;;;;;23.82;23.41;100676.20;1681639;85;21204;-61
2021/09/15 08:10:24;;;;;;;4.65;1.70;;;;;;;23.72;23.64;100674.48;1681918;84;20986;-60
2021/09/15 08:12:52;;;;;;;5.53;1.72;;;;;;;23.66;24.44;100672.91;1674226;85;21152;-60
2021/09/15 08:15:19;;;;;;;8.70;1.60;;;;;;;23.68;24.85;100672.08;1662932;85;20931;-59
2021/09/15 08:17:50;;;;;;;2.90;1.50;;;;;;;23.70;25.33;100674.75;1681372;84;21029;-60
2021/09/15 08:20:15;;;;;;;4.35;2.15;;;;;;;23.72;24.86;100669.80;1681457;85;20935;-61
2021/09/15 08:22:42;;;;;;;7.17;1.90;;;;;;;23.55;25.59;100670.34;1681592;85;20947;-60
2021/09/15 08:25:10;;;;;;;6.53;1.62;;;;;;;23.55;26.14;100670.91;1682091;85;21195;-62
2021/09/15 08:27:37;;;;;;;5.50;2.20;;;;;;;23.62;26.10;100668.61;1700634;83;21074;-61
2021/09/15 08:30:05;;;;;;;10.38;1.98;;;;;;;23.64;25.88;100667.73;1716927;82;21050;-55
2021/09/15 08:32:32;;;;;;;;;;;;;;;23.55;25.69;100666.80;1699235;83;21038;-57
2021/09/15 08:34:59;;;;;;;6.15;2.08;;;;;;;23.35;26.86;100672.02;1716308;83;20101;-59
2021/09/15 08:37:26;;;;;;;8.58;2.10;;;;;;;23.34;27.19;100673.16;1715503;83;21140;-59
2021/09/15 08:39:54;;;;;;;4.33;1.72;;;;;;;23.43;27.37;100667.27;1696162;83;20930;-58
2021/09/15 08:42:21;;;;;;;6.33;1.98;;;;;;;23.54;26.97;100672.01;1716348;83;21106;-59
2021/09/15 08:44:48;;;;;;;5.20;1.90;;;;;;;23.53;27.10;100663.56;1716523;83;21216;-61
2021/09/15 08:47:15;;;;;;;8.13;2.23;;;;;;;23.42;26.63;100669.20;1717005;83;20950;-59
2021/09/15 08:49:43;;;;;;;3.35;1.30;;;;;;;23.21;27.35;100670.60;1716599;83;21121;-59
2021/09/15 08:52:11;;;;;;;3.67;1.42;;;;;;;23.17;27.37;100667.63;1717502;82;20999;-60
2021/09/15 08:54:40;;;;;;;8.10;2.67;;;;;;;23.20;27.36;100656.66;1716264;81;21002;-63
2021/09/15 08:57:07;;;;;;;8.98;1.90;;;;;;;23.18;27.35;100662.43;1716214;81;23067;-63
2021/09/15 08:59:35;;;;;;;;;;;;;;;23.14;27.60;100658.66;1718932;82;21022;-61
2021/09/15 09:02:10;;;;;;;2.70;1.65;;;;;;;23.18;28.13;100661.06;1706070;83;21121;-60
2021/09/15 09:05:00;;;;;;;3.50;1.50;;;;;;;23.20;27.73;100653.92;1715312;82;20966;-61
2021/09/15 09:07:28;;;;;;;5.58;1.70;;;;;;;23.19;27.73;100650.93;1716516;83;21015;-62
2021/09/15 09:09:58;;;;;;;2.87;1.50;;;;;;;23.14;27.73;100651.02;1716442;83;20986;-61
2021/09/15 09:12:28;;;;;;;4.65;1.75;;;;;;;23.07;27.89;100649.97;1715384;83;21018;-61
2021/09/15 09:15:26;;;;;;;5.92;1.85;;;;;;;22.97;28.01;100644.66;1716278;83;21824;-60
2021/09/15 09:18:02;;;;;;;4.47;1.40;;;;;;;22.86;28.14;100642.62;1714416;83;21575;-60
2021/09/15 09:20:38;;;;;;;5.45;1.60;;;;;;;22.75;28.23;100648.22;1716708;83;20946;-61
2021/09/15 09:23:14;;;;;;;5.12;1.57;;;;;;;22.62;28.61;100644.05;1716608;83;21284;-62
2021/09/15 09:25:56;;;;;;;4.25;1.62;;;;;;;22.55;29.03;100645.19;1716655;83;21029;-63
2021/09/15 09:28:29;;;;;;;2.92;1.65;;;;;;;22.59;29.08;100646.80;1715159;83;21831;-60
2021/09/15 09:31:02;;;;;;;7.50;1.75;;;;;;;22.61;29.17;100647.31;1716647;83;20919;-61
2021/09/15 09:33:36;;;;;;;3.12;1.57;;;;;;;22.64;28.90;100631.70;1715858;83;20979;-60
2021/09/15 09:36:07;;;;;;;5.80;1.32;;;;;;;22.56;28.84;100637.27;1716703;82;21560;-61
2021/09/15 09:38:44;;;;;;;5.05;1.75;;;;;;;22.51;29.37;100633.24;1716295;83;21010;-63
2021/09/15 09:41:21;;;;;;;5.45;2.00;;;;;;;22.52;29.36;100632.11;1716757;81;21969;-62
2021/09/15 09:44:14;;;;;;;2.77;1.57;;;;;;;22.56;29.30;100632.36;1719432;82;20987;-61
2021/09/15 09:46:43;;;;;;;1.95;1.35;;;;;;;22.58;29.34;100624.67;1696957;83;21023;-60
2021/09/15 09:49:15;;;;;;;2.47;1.45;;;;;;;22.64;29.51;100619.96;1711033;83;21079;-60
2021/09/15 09:51:42;;;;;;;4.75;1.37;;;;;;;22.62;28.69;100616.72;1708121;81;21124;-61
2021/09/15 09:54:27;;;;;;;1.75;1.37;;;;;;;22.47;29.10;100609.54;1721620;81;21090;-60
2021/09/15 09:56:58;;;;;;;5.50;1.45;;;;;;;22.37;28.60;100611.83;1725785;82;20995;-62
2021/09/15 09:59:28;;;;;;;3.17;1.70;;;;;;;22.20;29.03;100609.52;1724697;82;20991;-60
2021/09/15 10:01:59;;;;;;;4.58;1.50;;;;;;;22.14;29.49;100612.89;1721108;82;20883;-60
2021/09/15 10:04:28;;;;;;;3.47;1.57;;;;;;;22.17;29.58;100603.28;1720966;82;21555;-60
2021/09/15 10:06:55;;;;;;;3.83;1.30;;;;;;;22.18;29.46;100608.45;1720945;82;21768;-60
2021/09/15 10:09:23;;;;;;;2.73;1.43;;;;;;;22.19;29.68;100599.17;1725579;82;20951;-61
2021/09/15 10:11:50;;;;;;;2.67;1.63;;;;;;;22.24;29.36;100602.39;1721361;82;21018;-62
2021/09/15 10:14:18;;;;;;;7.30;1.77;;;;;;;22.23;29.42;100600.75;1722455;82;20990;-59
2021/09/15 10:16:53;;;;;;;1.95;1.30;;;;;;;22.21;29.64;100595.58;1722193;82;20927;-60
2021/09/15 10:19:28;;;;;;;3.87;1.37;;;;;;;22.20;29.70;100591.78;1713377;82;21173;-60
2021/09/15 10:21:58;;;;;;;4.90;1.60;;;;;;;22.09;29.91;100598.48;1719947;82;20891;-60
2021/09/15 10:24:55;;;;;;;5.72;1.47;;;;;;;22.07;30.33;100596.58;1720836;82;20879;-60
2021/09/15 10:27:26;;;;;;;8.65;1.32;;;;;;;22.07;30.46;100585.66;1679531;85;21636;-59
2021/09/15 10:30:13;;;;;;;3.12;1.50;;;;;;;22.01;30.71;100582.16;1711869;82;21493;-60
2021/09/15 10:32:46;;;;;;;6.55;1.60;;;;;;;21.92;30.74;100579.25;1715889;82;21145;-60
2021/09/15 10:35:13;;;;;;;4.50;1.30;;;;;;;21.94;30.87;100582.52;1725492;82;21019;-59
2021/09/15 10:37:46;;;;;;;2.50;1.55;;;;;;;21.98;30.62;100584.95;1720360;82;21086;-59
2021/09/15 10:40:13;;;;;;;3.92;1.70;;;;;;;21.99;30.92;100577.00;1721459;82;20938;-60
2021/09/15 10:42:48;;;;;;;3.45;1.35;;;;;;;22.04;31.59;100578.88;1720175;82;21038;-59
2021/09/15 10:45:25;;;;;;;3.62;1.52;;;;;;;22.05;31.31;100578.59;1720417;82;21143;-60
2021/09/15 10:48:07;;;;;;;4.78;1.32;;;;;;;22.11;31.25;100568.97;1719692;82;20975;-59
2021/09/15 10:50:42;;;;;;;5.17;1.42;;;;;;;22.14;31.06;100570.58;1712992;83;21380;-59
2021/09/15 10:53:16;;;;;;;4.15;1.50;;;;;;;22.15;31.09;100571.38;1717638;82;21529;-59
2021/09/15 10:55:50;;;;;;;1.80;1.17;;;;;;;22.14;31.09;100572.47;1722224;82;20973;-65
2021/09/15 11:01:49;;;;;;;9.93;2.00;;;;;;;22.13;30.81;100570.84;1719034;82;20998;-61
2021/09/15 11:07:57;;;;;;;7.50;1.52;;;;;;;22.13;30.58;100572.20;1716694;82;21022;-60
2021/09/15 11:14:19;;;;;;;2.75;1.50;;;;;;;22.11;30.08;100567.03;1717392;82;21002;-61
2021/09/15 11:20:25;;;;;;;5.08;1.65;;;;;;;22.05;30.25;100567.67;1716586;82;21002;-60
2021/09/15 11:26:57;;;;;;;2.47;1.35;;;;;;;21.84;30.41;100555.34;1716571;82;20986;-60
2021/09/15 11:32:55;;;;;;;3.65;1.42;;;;;;;21.79;29.95;100551.30;1716549;83;20959;-61
2021/09/15 11:39:05;;;;;;;5.15;1.55;;;;;;;21.67;30.54;100549.80;1716010;83;20947;-61
2021/09/15 11:44:58;;;;;;;3.47;1.90;;;;;;;21.75;29.77;100547.54;1717207;82;20129;-62
2021/09/15 11:50:56;;;;;;;5.37;1.50;;;;;;;21.74;27.00;100544.54;1713847;83;21094;-60
2021/09/15 11:57:03;;;;;;;5.83;1.12;;;;;;;21.51;27.15;100538.77;1715227;83;21023;-61
2021/09/15 12:02:53;;;;;;;7.28;1.65;;;;;;;21.49;27.20;100521.84;1714204;83;21487;-60
2021/09/15 12:08:39;;;;;;;8.10;1.87;;;;;;;21.56;27.75;100524.27;1717102;83;21027;-60
2021/09/15 12:11:09;;;;;;;;;;;;;;;21.58;27.47;100513.88;1718919;83;20963;-60
2021/09/15 12:13:37;;;;;;;3.25;1.42;;;;;;;21.62;26.60;100513.56;1691703;83;21069;-61
2021/09/15 12:16:05;;;;;;;3.17;1.37;;;;;;;21.61;26.57;100510.04;1716456;82;21001;-59
2021/09/15 12:18:41;;;;;;;;;;;;;;;21.61;26.49;100503.22;1699358;83;21093;-59
2021/09/15 12:21:20;;;;;;;3.37;1.45;;;;;;;21.61;26.73;100504.58;1715655;83;20502;-60
2021/09/15 12:23:51;;;;;;;4.12;1.62;;;;;;;21.63;26.88;100505.09;1716427;83;20919;-60
2021/09/15 12:26:27;;;;;;;5.45;2.17;;;;;;;21.59;26.70;100500.52;1714701;82;21123;-60
2021/09/15 12:29:03;;;;;;;3.92;1.72;;;;;;;21.55;26.70;100504.91;1715305;83;20974;-63
2021/09/15 12:31:55;;;;;;;4.78;1.80;;;;;;;21.54;26.58;100498.66;1696294;83;21243;-62
2021/09/15 12:34:32;;;;;;;5.92;2.17;;;;;;;21.56;26.97;100497.80;1714694;83;21438;-60
2021/09/15 12:37:18;;;;;;;2.72;1.75;;;;;;;21.56;26.97;100494.27;1724838;82;21548;-64
2021/09/15 12:39:56;;;;;;;6.08;1.90;;;;;;;21.52;27.16;100487.20;1713057;83;21822;-61
2021/09/15 12:42:34;;;;;;;3.80;1.70;;;;;;;21.52;27.23;100487.20;1716580;83;28728;-62
2021/09/15 12:45:12;;;;;;;4.90;1.57;;;;;;;21.53;26.99;100483.38;1716650;83;20970;-60